Kirkersville, OH

5:20 AM EDT on October 21, 2019 (GMT -0400)
KD8UTwx | | Change Station
Active Advisory: Special Statement

Elev 1108 ft 40.01 °N, 82.58 °W | Updated 2 minutes ago

Overcast
Overcast
48.4 °F
Feels Like 48 °F
N
0
Wind Variable Wind from SSE
Gusts 1.6 mph

Today
High -- | Low -- °F
--% Chance of Precip.
Yesterday
High -- | Low -- °F
Precip. -- in
Pressure 29.94 in
Visibility 0.8 miles
Clouds
Windchill 48 °F
Dew Point 48 °F
Humidity 96%
Rainfall 0.00 in
Snow Depth Not available.
7:46 AM 6:42 PM
Waning Gibbous, 51% visible
METAR KVTA 210854Z AUTO 00000KT 3/4SM BR VV003 07/06 A2995 RMK AO2 SLP139 T00720056 58007
Pressure 29.94 in
Visibility 0.8 miles
Clouds
Windchill 48 °F
Dew Point 48 °F
Humidity 96%
Rainfall 0.00 in
Snow Depth Not available.
7:46 AM 6:42 PM
Waning Gibbous, 51% visible
METAR KVTA 210854Z AUTO 00000KT 3/4SM BR VV003 07/06 A2995 RMK AO2 SLP139 T00720056 58007

Get Your Daily Forecast Email!

Thanks for signing up!

Be on the lookout for a verification email in your inbox.

You'll start receiving severe weather alerts in your inbox..

×

10-Day Weather Forecast

Almanac

Astronomy

Oct. 21, 2019 Rise Set
Actual Time
Civil Twilight
Nautical Twilight
Astronomical Twilight
Moon
Length of Visible Light
Length of Day
Tomorrow will be .
, % of the Moon is Illuminated

Today's Extremes

State Highs State Lows

Community

WunderPhotos

Category 6

Welcome to Category 6. This is the collective home for Weather Underground's featured writeups by Dr. Jeff Masters (right), Bob Henson (left), Chris Burt, and other regular contributors.

Nearby

Air Quality

  Air Quality AQ Index Pollutant
Not available.

Snow Depth

Station Depth Elevation

Earthquake Activity

City Distance Mag. Time & Date
Minimum magnitude displayed is 2.5.

Coastal Water Temperatures

Place Temperature

Stations

Nearby Weather Stations

Station Location Temp. Windchill Dew Point Humidity Wind Precip. Elev Updated Type
                   

Watches & Warnings

Special Statement
Issued: 3:34 AM EDT Oct. 21, 2019 – National Weather Service

... Patchy dense fog affecting the area tonight...

Satellite and surface observations show areas of patchy fog
expanding, limiting visibility across portions of central Ohio.

Motorists should exercise extra caution. Visibility may change
quickly along your Route. Only use low beam headlights and allow a
little extra time to reach your destination.